Time;durP1;ratioP1;P1;durP2;ratioP2;P2;SDS_P1;SDS_P2;PMS_P1;PMS_P2;Temp;Humidity;BMP_temperature;BMP_pressure;BME280_temperature;BME280_humidity;BME280_pressure;Samples;Min_cycle;Max_cycle;Signal;HPM_P1;HPM_P2
2020/12/22 00:00:39;;;;;;;2.87;2.67;;;10.20;99.90;;;;;;5050744;28;20203;-73
2020/12/22 00:03:05;;;;;;;3.30;3.00;;;10.20;99.90;;;;;;5051025;28;20273;-73
2020/12/22 00:05:30;;;;;;;3.17;2.87;;;10.30;99.90;;;;;;5067745;28;20208;-73
2020/12/22 00:07:56;;;;;;;3.43;3.13;;;10.30;99.90;;;;;;5054567;28;20268;-74
2020/12/22 00:10:21;;;;;;;3.20;2.90;;;10.30;99.90;;;;;;5054560;28;20181;-72
2020/12/22 00:12:47;;;;;;;3.70;3.17;;;10.30;99.90;;;;;;5054790;28;20183;-73
2020/12/22 00:15:12;;;;;;;4.83;2.90;;;10.30;99.90;;;;;;5054511;28;20177;-73
2020/12/22 00:17:42;;;;;;;3.00;2.70;;;10.40;99.90;;;;;;5054317;28;20339;-72
2020/12/22 00:20:07;;;;;;;3.23;2.93;;;10.40;99.90;;;;;;5054571;28;20183;-73
2020/12/22 00:22:33;;;;;;;4.10;3.30;;;10.40;99.90;;;;;;5054509;28;20208;-73
2020/12/22 00:24:58;;;;;;;3.50;3.20;;;10.40;99.90;;;;;;5054391;28;20690;-77
2020/12/22 00:27:24;;;;;;;3.87;3.40;;;10.50;99.90;;;;;;5054088;28;20175;-74
2020/12/22 00:29:49;;;;;;;4.13;3.83;;;10.50;99.90;;;;;;5054150;28;20208;-76
2020/12/22 00:32:15;;;;;;;5.90;4.67;;;10.50;99.90;;;;;;5054034;28;20290;-75
2020/12/22 00:34:40;;;;;;;5.83;4.90;;;10.50;99.90;;;;;;5054203;28;20581;-73
2020/12/22 00:37:06;;;;;;;5.73;5.10;;;10.50;99.90;;;;;;5053988;28;20181;-73
2020/12/22 00:39:31;;;;;;;5.93;5.33;;;10.50;99.90;;;;;;5054025;28;20212;-72
2020/12/22 00:41:57;;;;;;;5.03;4.63;;;10.50;99.90;;;;;;5053951;28;20204;-72
2020/12/22 00:44:23;;;;;;;6.60;6.00;;;10.60;99.90;;;;;;5053767;28;20212;-73
2020/12/22 00:46:49;;;;;;;6.40;5.83;;;10.60;99.90;;;;;;5053686;28;20546;-73
2020/12/22 00:49:15;;;;;;;7.27;6.50;;;10.60;99.90;;;;;;5053638;28;20188;-73
2020/12/22 00:51:41;;;;;;;7.10;6.40;;;10.60;99.90;;;;;;5054793;28;20239;-73
2020/12/22 00:54:06;;;;;;;9.37;6.93;;;10.60;99.90;;;;;;5053708;28;20667;-73
2020/12/22 00:56:32;;;;;;;8.87;7.20;;;10.70;99.90;;;;;;5070027;28;20188;-72
2020/12/22 00:58:57;;;;;;;7.97;6.87;;;10.70;99.90;;;;;;5053972;28;20334;-72
2020/12/22 01:01:23;;;;;;;7.67;6.87;;;10.70;99.90;;;;;;5070513;28;20223;-73
2020/12/22 01:03:49;;;;;;;8.10;7.30;;;10.80;99.90;;;;;;5054268;28;20649;-74
2020/12/22 01:06:15;;;;;;;7.90;7.20;;;10.90;99.90;;;;;;5053341;28;20243;-74
2020/12/22 01:08:42;;;;;;;9.03;7.97;;;10.90;99.90;;;;;;5053628;28;20216;-73
2020/12/22 01:11:07;;;;;;;8.03;7.30;;;10.90;99.90;;;;;;5053542;28;20208;-75
2020/12/22 01:13:33;;;;;;;8.47;7.67;;;11.00;99.90;;;;;;5053545;28;20600;-73
2020/12/22 01:15:58;;;;;;;8.67;7.87;;;10.90;99.90;;;;;;5053431;28;20703;-74
2020/12/22 01:18:24;;;;;;;9.03;8.03;;;11.00;99.90;;;;;;5052953;28;20271;-75
2020/12/22 01:20:49;;;;;;;9.07;7.33;;;11.00;99.90;;;;;;5053409;28;20209;-75
2020/12/22 01:23:15;;;;;;;8.50;7.70;;;11.10;99.90;;;;;;5054680;28;20185;-73
2020/12/22 01:25:41;;;;;;;8.23;7.43;;;11.10;99.90;;;;;;5053369;28;20297;-72
2020/12/22 01:28:06;;;;;;;8.73;7.93;;;11.20;99.90;;;;;;5052952;28;20181;-73
2020/12/22 01:30:32;;;;;;;8.53;7.60;;;11.20;99.90;;;;;;5052919;28;20259;-74
2020/12/22 01:32:57;;;;;;;8.80;8.00;;;11.20;99.90;;;;;;5054316;28;20243;-75
2020/12/22 01:35:23;;;;;;;8.73;7.67;;;11.30;99.90;;;;;;5053134;28;20223;-74
2020/12/22 01:37:48;;;;;;;8.60;7.33;;;11.30;99.90;;;;;;5052828;28;20189;-74
2020/12/22 01:40:14;;;;;;;8.73;7.17;;;11.30;99.90;;;;;;5052953;28;20194;-75
2020/12/22 01:42:43;;;;;;;9.17;7.83;;;11.40;99.90;;;;;;5052857;28;20722;-74
2020/12/22 01:45:10;;;;;;;8.17;7.37;;;11.40;99.90;;;;;;5052891;28;20217;-73
2020/12/22 01:47:36;;;;;;;9.07;7.43;;;11.40;99.90;;;;;;5052497;28;20181;-73
2020/12/22 01:50:01;;;;;;;8.37;6.17;;;11.40;99.90;;;;;;5052833;28;20174;-74
2020/12/22 01:52:27;;;;;;;7.27;6.57;;;11.40;99.90;;;;;;5052671;28;20338;-73
2020/12/22 01:54:52;;;;;;;6.77;6.10;;;11.50;99.90;;;;;;5052741;28;20189;-74
2020/12/22 01:57:18;;;;;;;6.67;6.03;;;11.50;99.90;;;;;;5052425;28;20189;-74
2020/12/22 01:59:43;;;;;;;6.83;5.87;;;11.50;99.90;;;;;;5052784;28;20186;-74
2020/12/22 02:02:09;;;;;;;7.03;5.53;;;11.50;99.90;;;;;;5035759;28;20220;-73
2020/12/22 02:04:35;;;;;;;7.53;6.10;;;11.60;99.90;;;;;;5052987;28;20221;-73
2020/12/22 02:07:01;;;;;;;6.20;5.60;;;11.60;99.90;;;;;;5052381;28;20209;-74
2020/12/22 02:09:26;;;;;;;6.13;5.63;;;11.60;99.90;;;;;;5052612;28;20217;-73
2020/12/22 02:11:52;;;;;;;6.60;6.00;;;11.60;99.90;;;;;;5053464;28;20185;-74
2020/12/22 02:14:17;;;;;;;6.40;5.80;;;11.60;99.90;;;;;;5052487;28;20597;-73
2020/12/22 02:16:43;;;;;;;6.30;5.70;;;11.70;99.90;;;;;;5052167;28;20672;-74
2020/12/22 02:19:09;;;;;;;6.70;6.00;;;11.70;99.90;;;;;;5052299;28;20217;-74
2020/12/22 02:21:34;;;;;;;6.73;6.13;;;11.80;99.90;;;;;;5052146;28;20231;-74
2020/12/22 02:24:00;;;;;;;6.50;5.90;;;11.80;99.90;;;;;;5052134;28;20244;-73
2020/12/22 02:26:25;;;;;;;6.27;5.67;;;11.80;99.90;;;;;;5051980;28;20177;-73
2020/12/22 02:28:52;;;;;;;6.43;5.83;;;11.90;99.90;;;;;;5051228;28;20178;-75
2020/12/22 02:31:18;;;;;;;7.97;6.40;;;11.90;99.90;;;;;;5052076;28;20216;-74
2020/12/22 02:33:44;;;;;;;7.67;6.57;;;11.90;99.90;;;;;;5052190;28;20170;-73
2020/12/22 02:36:10;;;;;;;7.37;6.67;;;12.00;99.90;;;;;;5051528;28;20174;-73
2020/12/22 02:38:36;;;;;;;9.83;7.40;;;11.90;99.90;;;;;;5059427;28;20189;-73
2020/12/22 02:41:02;;;;;;;7.97;7.23;;;12.00;99.90;;;;;;5024023;28;20282;-73
2020/12/22 02:43:27;;;;;;;8.10;7.00;;;12.00;99.90;;;;;;5014307;28;20171;-74
2020/12/22 02:45:53;;;;;;;7.30;6.20;;;12.00;99.90;;;;;;4999021;28;20299;-74
2020/12/22 02:48:18;;;;;;;6.97;6.37;;;12.00;99.90;;;;;;5015084;28;20189;-74
2020/12/22 02:50:44;;;;;;;6.43;5.83;;;12.10;99.90;;;;;;5015239;28;20202;-74
2020/12/22 02:53:09;;;;;;;6.83;6.23;;;12.10;99.90;;;;;;5032987;28;20175;-74
2020/12/22 02:55:35;;;;;;;6.60;6.00;;;12.00;99.90;;;;;;4998739;28;20182;-74
2020/12/22 02:58:00;;;;;;;6.97;6.27;;;12.10;99.90;;;;;;5015277;28;20234;-73
2020/12/22 03:00:26;;;;;;;6.57;5.80;;;12.10;99.90;;;;;;4998771;28;20179;-74
2020/12/22 03:02:51;;;;;;;6.70;5.93;;;12.10;99.90;;;;;;5015349;28;20187;-73
2020/12/22 03:05:17;;;;;;;8.10;6.57;;;12.20;99.90;;;;;;5015088;28;20323;-74
2020/12/22 03:07:43;;;;;;;6.00;5.40;;;12.20;99.90;;;;;;5014740;28;20213;-73
2020/12/22 03:10:10;;;;;;;6.40;5.80;;;12.20;99.90;;;;;;5014995;28;20182;-73
2020/12/22 03:12:35;;;;;;;7.13;6.43;;;12.20;99.90;;;;;;5014815;28;20210;-74
2020/12/22 03:15:02;;;;;;;7.60;6.90;;;12.30;99.90;;;;;;5015167;28;20672;-73
2020/12/22 03:17:28;;;;;;;7.50;6.90;;;12.30;99.90;;;;;;5015351;28;20170;-74
2020/12/22 03:19:53;;;;;;;8.03;7.13;;;12.30;99.90;;;;;;5014921;28;20193;-73
2020/12/22 03:22:19;;;;;;;6.87;6.10;;;12.40;99.90;;;;;;5031252;28;20199;-72
2020/12/22 03:24:44;;;;;;;7.70;6.93;;;12.50;99.90;;;;;;5031070;28;20198;-73
2020/12/22 03:27:10;;;;;;;8.40;7.60;;;12.50;99.90;;;;;;5030840;28;20182;-73
2020/12/22 03:29:35;;;;;;;8.00;6.40;;;12.50;99.90;;;;;;5031123;28;20179;-73
2020/12/22 03:32:01;;;;;;;7.50;6.17;;;12.60;99.90;;;;;;5069616;22;20922;-76
2020/12/22 03:34:26;;;;;;;7.50;6.43;;;12.60;99.90;;;;;;5050959;28;20641;-76
2020/12/22 03:36:52;;;;;;;8.00;7.27;;;12.60;99.90;;;;;;5034170;28;20224;-76
2020/12/22 03:39:18;;;;;;;8.50;7.27;;;12.70;99.90;;;;;;5034118;28;20666;-78
2020/12/22 03:41:44;;;;;;;7.63;6.93;;;12.70;99.90;;;;;;5050703;28;20186;-76
2020/12/22 03:44:09;;;;;;;8.20;7.13;;;12.70;99.90;;;;;;5033523;28;20265;-79
2020/12/22 03:46:36;;;;;;;7.93;7.20;;;12.70;99.90;;;;;;5050278;28;20185;-76
2020/12/22 03:49:02;;;;;;;8.40;7.57;;;12.80;99.90;;;;;;5034388;28;20634;-76
2020/12/22 03:51:27;;;;;;;8.60;6.97;;;12.80;99.90;;;;;;5034084;28;20198;-76
2020/12/22 03:53:53;;;;;;;7.33;6.63;;;12.80;99.90;;;;;;5034188;28;20837;-76
2020/12/22 03:56:18;;;;;;;8.07;7.37;;;12.80;99.90;;;;;;5050731;28;20642;-76
2020/12/22 03:58:44;;;;;;;8.33;6.93;;;12.80;99.90;;;;;;5050513;28;20185;-77
2020/12/22 04:01:09;;;;;;;8.13;7.00;;;12.80;99.90;;;;;;5050586;28;20167;-76
2020/12/22 04:03:35;;;;;;;8.43;7.63;;;12.90;99.90;;;;;;5050524;28;20201;-75
2020/12/22 04:06:00;;;;;;;8.00;7.27;;;12.90;99.90;;;;;;5033797;28;20198;-83
2020/12/22 04:08:26;;;;;;;7.63;6.87;;;12.90;99.90;;;;;;5033931;28;20253;-79
2020/12/22 04:10:51;;;;;;;7.77;6.23;;;12.90;99.90;;;;;;5017409;28;20200;-76
2020/12/22 04:13:17;;;;;;;6.27;5.67;;;13.00;99.90;;;;;;5051673;28;20201;-76
2020/12/22 04:15:43;;;;;;;6.47;5.87;;;13.00;99.90;;;;;;5017432;28;20189;-76
2020/12/22 04:18:08;;;;;;;6.63;5.60;;;13.00;99.90;;;;;;5050283;28;20201;-79
2020/12/22 04:20:34;;;;;;;5.77;5.27;;;13.00;99.90;;;;;;5050370;28;20174;-75
2020/12/22 04:22:59;;;;;;;4.83;4.33;;;13.10;99.90;;;;;;5051507;28;20251;-76
2020/12/22 04:25:25;;;;;;;4.93;4.27;;;13.10;99.90;;;;;;5033742;28;20236;-76
2020/12/22 04:27:50;;;;;;;5.93;5.00;;;13.10;99.90;;;;;;5066797;28;20181;-78
2020/12/22 04:30:16;;;;;;;5.17;3.93;;;13.10;99.90;;;;;;5066832;28;20187;-76
2020/12/22 04:32:41;;;;;;;5.00;3.80;;;13.10;99.90;;;;;;5050099;28;20210;-76
2020/12/22 04:35:07;;;;;;;4.53;2.60;;;13.10;99.90;;;;;;5050326;28;20268;-76
2020/12/22 04:37:32;;;;;;;3.93;2.30;;;13.10;99.90;;;;;;5050044;28;20186;-76
2020/12/22 04:39:58;;;;;;;3.00;2.20;;;13.20;99.90;;;;;;5050105;28;20206;-76
2020/12/22 04:42:24;;;;;;;3.97;2.57;;;13.20;99.90;;;;;;5033498;28;20216;-75
2020/12/22 04:44:50;;;;;;;3.40;1.70;;;13.20;99.90;;;;;;5033518;28;20305;-77
2020/12/22 04:47:16;;;;;;;5.47;2.10;;;13.30;99.90;;;;;;5033342;28;20660;-77
2020/12/22 04:49:42;;;;;;;3.97;1.60;;;13.30;99.90;;;;;;5033612;28;20712;-76
2020/12/22 04:52:08;;;;;;;3.17;1.80;;;13.30;99.90;;;;;;5034900;28;20198;-76
2020/12/22 04:54:34;;;;;;;2.43;1.50;;;13.20;99.90;;;;;;5037256;28;20182;-76
2020/12/22 04:57:00;;;;;;;2.90;1.60;;;13.30;99.90;;;;;;5037176;28;20615;-79
2020/12/22 04:59:26;;;;;;;3.43;1.80;;;13.20;99.90;;;;;;5053918;28;20551;-76
2020/12/22 05:01:51;;;;;;;2.80;1.40;;;13.20;99.90;;;;;;5036873;28;20202;-79
2020/12/22 05:04:17;;;;;;;1.37;1.20;;;13.30;99.90;;;;;;5036956;28;20225;-76
2020/12/22 05:06:42;;;;;;;3.27;1.30;;;13.40;99.90;;;;;;5053399;28;20185;-75
2020/12/22 05:09:08;;;;;;;2.77;1.10;;;13.40;99.90;;;;;;5053341;28;20181;-77
2020/12/22 05:11:37;;;;;;;3.63;1.20;;;13.40;99.90;;;;;;5053198;28;20185;-76
2020/12/22 05:14:06;;;;;;;3.20;1.20;;;13.40;99.90;;;;;;5036703;28;20179;-76
2020/12/22 05:16:35;;;;;;;1.43;1.00;;;13.40;99.90;;;;;;5036942;28;20171;-76
2020/12/22 05:19:01;;;;;;;2.20;1.20;;;13.40;99.90;;;;;;5053406;28;20178;-76
2020/12/22 05:21:26;;;;;;;1.40;1.20;;;13.30;99.90;;;;;;5036510;28;20204;-77
2020/12/22 05:23:52;;;;;;;2.70;1.30;;;13.20;99.90;;;;;;5036341;28;20181;-78
2020/12/22 05:26:19;;;;;;;1.73;1.30;;;13.20;99.90;;;;;;5053026;28;20174;-75
2020/12/22 05:28:45;;;;;;;1.50;1.20;;;13.20;99.90;;;;;;5036755;28;20178;-76
2020/12/22 05:31:14;;;;;;;3.03;1.50;;;13.10;99.90;;;;;;5053016;28;20174;-76
2020/12/22 05:33:45;;;;;;;1.93;1.70;;;13.10;99.90;;;;;;5036329;28;20217;-76
2020/12/22 05:36:11;;;;;;;2.60;1.90;;;13.00;99.90;;;;;;5036468;28;20186;-76
2020/12/22 05:38:38;;;;;;;3.50;2.20;;;13.10;99.90;;;;;;5036465;28;20178;-76
2020/12/22 05:41:06;;;;;;;2.77;2.57;;;13.10;99.90;;;;;;5019766;28;20715;-75
2020/12/22 05:43:42;;;;;;;5.70;2.60;;;13.10;99.90;;;;;;5019638;28;20198;-75
2020/12/22 05:46:08;;;;;;;3.47;2.70;;;13.00;99.90;;;;;;5053757;28;20277;-76
2020/12/22 05:48:34;;;;;;;5.40;2.77;;;13.10;99.90;;;;;;5039309;28;20746;-75
2020/12/22 05:51:01;;;;;;;3.90;2.80;;;13.10;99.90;;;;;;5036008;28;20174;-75
2020/12/22 05:53:27;;;;;;;3.00;2.77;;;13.10;99.90;;;;;;5042026;28;20222;-75
2020/12/22 05:55:52;;;;;;;3.23;1.93;;;13.10;99.90;;;;;;5035731;28;20669;-78
2020/12/22 05:58:18;;;;;;;2.97;2.57;;;13.10;99.90;;;;;;5035714;28;20559;-76
2020/12/22 06:00:44;;;;;;;3.00;2.70;;;13.10;99.90;;;;;;5052274;28;20174;-75
2020/12/22 06:03:11;;;;;;;2.70;2.50;;;13.20;99.90;;;;;;5052442;28;20226;-77
2020/12/22 06:05:38;;;;;;;2.87;2.10;;;13.10;99.90;;;;;;5052339;28;20208;-77
2020/12/22 06:08:04;;;;;;;3.20;1.70;;;13.10;99.90;;;;;;5052171;28;20649;-77
2020/12/22 06:10:30;;;;;;;1.93;1.40;;;13.20;99.90;;;;;;5052263;28;20177;-77
2020/12/22 06:12:57;;;;;;;2.23;1.40;;;13.20;99.90;;;;;;5052214;28;20221;-77
2020/12/22 06:15:23;;;;;;;1.97;1.47;;;13.20;99.90;;;;;;5052155;28;20178;-76
2020/12/22 06:17:49;;;;;;;1.40;1.30;;;13.10;99.90;;;;;;5035235;28;20269;-77
2020/12/22 06:20:17;;;;;;;3.50;1.30;;;13.10;99.90;;;;;;5051571;28;20767;-77
2020/12/22 06:22:42;;;;;;;2.00;1.30;;;13.10;99.90;;;;;;5048390;28;20207;-79
2020/12/22 06:25:08;;;;;;;1.87;1.50;;;13.10;99.90;;;;;;5023070;28;20670;-79
2020/12/22 06:27:34;;;;;;;1.60;1.50;;;13.10;99.90;;;;;;5027604;28;20723;-79
2020/12/22 06:29:59;;;;;;;3.03;1.60;;;13.20;99.90;;;;;;5052039;28;20650;-80
2020/12/22 06:32:26;;;;;;;2.87;1.80;;;13.20;99.90;;;;;;5048703;28;20207;-78
2020/12/22 06:34:52;;;;;;;2.33;1.73;;;13.20;99.90;;;;;;5015798;28;20551;-79
2020/12/22 06:37:23;;;;;;;2.70;2.00;;;13.20;99.90;;;;;;5031965;28;20178;-79
2020/12/22 06:39:50;;;;;;;2.57;2.00;;;13.20;99.90;;;;;;5032074;28;20207;-79
2020/12/22 06:42:31;;;;;;;2.77;2.17;;;13.20;99.90;;;;;;5016267;28;20198;-80
2020/12/22 06:45:41;;;;;;;2.57;2.27;;;13.10;99.90;;;;;;5032287;28;20206;-80
2020/12/22 06:48:07;;;;;;;2.80;1.70;;;13.10;99.90;;;;;;5033843;28;20189;-81
2020/12/22 06:50:36;;;;;;;2.10;1.90;;;13.00;99.90;;;;;;5019008;28;20182;-80
2020/12/22 06:53:02;;;;;;;2.40;1.87;;;13.00;99.90;;;;;;5052268;28;20285;-80
2020/12/22 06:55:47;;;;;;;2.57;2.20;;;13.00;99.90;;;;;;5035499;28;20256;-79
2020/12/22 06:58:39;;;;;;;2.63;2.33;;;13.00;99.90;;;;;;5035794;28;20205;-80
2020/12/22 07:01:26;;;;;;;2.70;2.30;;;13.10;99.90;;;;;;5051843;28;20168;-79
2020/12/22 07:03:52;;;;;;;2.53;2.33;;;13.00;99.90;;;;;;5052868;28;20569;-78
2020/12/22 07:06:43;;;;;;;3.90;2.87;;;13.00;99.90;;;;;;5018260;28;20684;-78
2020/12/22 07:09:28;;;;;;;4.33;2.90;;;13.10;99.90;;;;;;5051617;28;20200;-78
2020/12/22 07:12:10;;;;;;;3.17;2.87;;;13.00;99.90;;;;;;5019626;28;20203;-78
2020/12/22 07:14:49;;;;;;;3.40;3.10;;;13.10;99.90;;;;;;5030838;28;20170;-77
2020/12/22 07:17:15;;;;;;;3.63;2.90;;;13.00;99.90;;;;;;5031133;28;20166;-77
2020/12/22 07:19:47;;;;;;;3.37;2.80;;;13.00;99.90;;;;;;5014906;28;20544;-78
2020/12/22 07:22:14;;;;;;;3.40;2.97;;;13.10;99.90;;;;;;5031710;28;20199;-78
2020/12/22 07:24:39;;;;;;;2.73;2.37;;;13.00;99.90;;;;;;5031875;28;20207;-79
2020/12/22 07:27:06;;;;;;;3.57;2.80;;;13.00;99.90;;;;;;5025012;28;20301;-80
2020/12/22 07:29:33;;;;;;;3.67;2.77;;;13.00;99.90;;;;;;5052567;28;20167;-79
2020/12/22 07:31:59;;;;;;;5.00;3.00;;;13.00;99.90;;;;;;5048726;28;20211;-80
2020/12/22 07:34:24;;;;;;;3.50;3.20;;;13.10;99.90;;;;;;5015916;28;20660;-79
2020/12/22 07:36:51;;;;;;;4.67;3.60;;;13.10;99.90;;;;;;5016022;28;20183;-79
2020/12/22 07:39:26;;;;;;;3.93;3.53;;;13.00;99.90;;;;;;5015209;28;20187;-79
2020/12/22 07:41:51;;;;;;;5.37;3.80;;;13.00;99.90;;;;;;5031405;28;20279;-80
2020/12/22 07:44:18;;;;;;;4.10;3.53;;;13.00;99.90;;;;;;5014820;28;20265;-78
2020/12/22 07:46:45;;;;;;;4.30;3.40;;;13.00;99.90;;;;;;5014719;28;20183;-79
2020/12/22 07:49:11;;;;;;;5.33;4.20;;;13.00;99.90;;;;;;5014822;28;20236;-79
2020/12/22 07:51:40;;;;;;;5.70;4.17;;;13.00;99.90;;;;;;5021962;28;20186;-79
2020/12/22 07:54:06;;;;;;;5.83;3.93;;;13.00;99.90;;;;;;5037217;28;20178;-81
2020/12/22 07:56:36;;;;;;;5.63;4.30;;;13.00;99.90;;;;;;5036219;28;20184;-79
2020/12/22 07:59:03;;;;;;;6.23;4.10;;;12.90;99.90;;;;;;5037574;28;20243;-80
2020/12/22 08:01:37;;;;;;;5.77;4.03;;;12.90;99.90;;;;;;5036031;28;20174;-78
2020/12/22 08:04:30;;;;;;;4.40;3.90;;;13.00;99.90;;;;;;5049305;28;20182;-78
2020/12/22 08:07:02;;;;;;;5.63;3.87;;;13.00;99.90;;;;;;5032825;28;20195;-77
2020/12/22 08:09:38;;;;;;;3.97;3.50;;;13.00;99.90;;;;;;5020902;28;20206;-80
2020/12/22 08:12:08;;;;;;;5.00;4.20;;;13.00;99.90;;;;;;5034046;28;20209;-79
2020/12/22 08:14:42;;;;;;;3.97;3.67;;;13.00;99.90;;;;;;5026895;28;20175;-79
2020/12/22 08:17:16;;;;;;;4.83;4.33;;;13.00;99.90;;;;;;5051803;28;20179;-78
2020/12/22 08:19:42;;;;;;;3.20;3.00;;;13.10;99.90;;;;;;5029909;28;20275;-79
2020/12/22 08:22:07;;;;;;;4.40;3.40;;;13.10;99.90;;;;;;5048201;28;20743;-78
2020/12/22 08:24:36;;;;;;;4.53;3.40;;;13.20;99.90;;;;;;5044533;28;20294;-78
2020/12/22 08:27:02;;;;;;;4.37;3.40;;;13.10;99.90;;;;;;5041873;28;20252;-79
2020/12/22 08:29:28;;;;;;;5.30;3.60;;;13.20;99.90;;;;;;5055395;28;20185;-78
2020/12/22 08:32:01;;;;;;;3.60;2.97;;;13.20;99.90;;;;;;5043568;28;20218;-79
2020/12/22 08:34:27;;;;;;;3.33;2.60;;;13.20;99.90;;;;;;5049800;28;20189;-81
2020/12/22 08:36:52;;;;;;;2.90;2.40;;;13.20;99.90;;;;;;5051445;28;20178;-79
2020/12/22 08:39:27;;;;;;;3.73;2.53;;;13.20;99.90;;;;;;5042381;28;20212;-79
2020/12/22 08:41:53;;;;;;;3.43;2.90;;;13.20;99.90;;;;;;5044039;28;20691;-79
2020/12/22 08:44:18;;;;;;;3.90;2.57;;;13.30;99.90;;;;;;5067606;28;20194;-78
2020/12/22 08:46:44;;;;;;;3.53;2.80;;;13.20;99.90;;;;;;5049883;28;20227;-79
2020/12/22 08:49:10;;;;;;;2.67;2.37;;;13.20;99.90;;;;;;5043121;28;20186;-79
2020/12/22 08:51:35;;;;;;;3.03;2.73;;;13.20;99.90;;;;;;5090545;28;20186;-81
2020/12/22 08:54:01;;;;;;;3.50;2.47;;;13.20;99.90;;;;;;5048143;28;20256;-81
2020/12/22 08:56:27;;;;;;;2.50;2.20;;;13.20;99.90;;;;;;5053729;28;20186;-82
2020/12/22 08:59:14;;;;;;;3.23;2.50;;;13.20;99.90;;;;;;5038096;28;20212;-79
2020/12/22 09:01:41;;;;;;;2.67;2.47;;;13.30;99.90;;;;;;5048635;28;20272;-80
2020/12/22 09:04:07;;;;;;;2.60;2.40;;;13.30;99.90;;;;;;5056778;28;20247;-76
2020/12/22 09:06:33;;;;;;;2.93;2.73;;;13.20;99.90;;;;;;5073233;28;20640;-77
2020/12/22 09:09:00;;;;;;;3.70;2.80;;;13.20;99.90;;;;;;5040366;28;20226;-79
2020/12/22 09:11:26;;;;;;;2.63;2.43;;;13.10;99.90;;;;;;5056576;28;20170;-77
2020/12/22 09:14:18;;;;;;;4.13;2.70;;;13.10;99.90;;;;;;5033845;28;20173;-78
2020/12/22 09:16:48;;;;;;;4.17;2.60;;;13.10;99.90;;;;;;5055697;28;20186;-77
2020/12/22 09:19:15;;;;;;;2.77;2.50;;;13.10;99.90;;;;;;5052655;28;20300;-77
2020/12/22 09:21:40;;;;;;;3.03;2.50;;;13.10;99.90;;;;;;5043992;28;20649;-78
2020/12/22 09:24:06;;;;;;;3.60;2.60;;;13.00;99.90;;;;;;5023477;28;20185;-76
2020/12/22 09:26:32;;;;;;;4.20;2.10;;;13.00;99.90;;;;;;5020785;28;20685;-81
2020/12/22 09:28:57;;;;;;;1.93;1.70;;;13.10;99.90;;;;;;5054605;28;20185;-79
2020/12/22 09:31:24;;;;;;;4.03;2.20;;;13.00;99.90;;;;;;5046098;28;20173;-79
2020/12/22 09:33:51;;;;;;;2.60;1.60;;;13.10;99.90;;;;;;5037806;28;20194;-79
2020/12/22 09:36:16;;;;;;;1.73;1.60;;;13.00;99.90;;;;;;5049301;28;20194;-78
2020/12/22 09:38:42;;;;;;;2.20;1.50;;;12.90;99.90;;;;;;5039661;28;20594;-83
2020/12/22 09:41:07;;;;;;;2.53;1.60;;;12.90;99.90;;;;;;5059754;28;20262;-79
2020/12/22 09:43:33;;;;;;;2.90;1.70;;;12.90;99.90;;;;;;5053941;28;20569;-78
2020/12/22 09:45:58;;;;;;;2.13;1.50;;;12.90;99.90;;;;;;5054275;28;20190;-78
2020/12/22 09:48:24;;;;;;;3.07;1.40;;;12.90;99.90;;;;;;5046600;28;20647;-81
2020/12/22 09:50:49;;;;;;;2.67;1.33;;;12.80;99.90;;;;;;5030687;28;20690;-79
2020/12/22 09:53:15;;;;;;;3.63;1.20;;;12.70;99.90;;;;;;5045059;28;20240;-79
2020/12/22 09:55:40;;;;;;;2.43;1.27;;;12.70;99.90;;;;;;5009372;28;20179;-80
2020/12/22 09:58:06;;;;;;;3.40;1.30;;;12.80;99.90;;;;;;5028941;28;20189;-79
2020/12/22 10:00:31;;;;;;;3.63;1.00;;;12.80;99.90;;;;;;5020254;28;20167;-81
2020/12/22 10:02:57;;;;;;;1.93;1.13;;;12.90;99.90;;;;;;5053306;28;20206;-80
2020/12/22 10:05:23;;;;;;;4.03;1.27;;;12.80;99.90;;;;;;5037727;28;20293;-81
2020/12/22 10:07:48;;;;;;;1.47;1.10;;;12.80;99.90;;;;;;5054261;28;20174;-79
2020/12/22 10:10:14;;;;;;;2.87;1.30;;;12.80;99.90;;;;;;5054830;28;20221;-79
2020/12/22 10:12:39;;;;;;;4.33;1.03;;;12.80;99.90;;;;;;5054234;28;20575;-76
2020/12/22 10:15:05;;;;;;;4.60;1.50;;;12.70;99.90;;;;;;5052181;28;20555;-76
2020/12/22 10:17:31;;;;;;;3.00;1.43;;;12.70;99.90;;;;;;5052343;28;20654;-78
2020/12/22 10:19:56;;;;;;;3.20;1.37;;;12.80;99.90;;;;;;5052511;28;20186;-78
2020/12/22 10:22:22;;;;;;;2.40;1.50;;;12.80;99.90;;;;;;5052012;28;20297;-79
2020/12/22 10:24:47;;;;;;;5.60;1.87;;;12.80;99.90;;;;;;5051877;28;20202;-78
2020/12/22 10:27:13;;;;;;;3.37;2.20;;;12.80;99.90;;;;;;5052060;28;20185;-80
2020/12/22 10:29:38;;;;;;;4.77;2.60;;;12.80;99.90;;;;;;5040618;28;20178;-79
2020/12/22 10:32:04;;;;;;;3.23;2.43;;;12.90;99.90;;;;;;5039265;28;20221;-79
2020/12/22 10:34:30;;;;;;;3.40;2.63;;;13.00;99.90;;;;;;5052834;28;20185;-79
2020/12/22 10:36:56;;;;;;;3.57;2.70;;;13.10;99.90;;;;;;5037833;28;20182;-81
2020/12/22 10:39:22;;;;;;;3.07;2.77;;;13.20;99.90;;;;;;5041555;28;20183;-79
2020/12/22 10:41:48;;;;;;;3.20;2.57;;;13.30;99.90;;;;;;5029570;28;20229;-80
2020/12/22 10:44:13;;;;;;;3.83;2.83;;;13.30;99.90;;;;;;5060535;28;20173;-78
2020/12/22 10:46:39;;;;;;;3.57;2.43;;;13.30;99.90;;;;;;5049444;28;20269;-79
2020/12/22 10:49:04;;;;;;;2.80;2.47;;;13.30;99.90;;;;;;5041100;28;20189;-78
2020/12/22 10:51:31;;;;;;;3.53;2.37;;;13.20;99.90;;;;;;5032813;28;20174;-80
2020/12/22 10:53:57;;;;;;;3.50;2.90;;;13.20;99.90;;;;;;5056579;28;20180;-77
2020/12/22 10:56:23;;;;;;;4.20;2.70;;;13.20;99.90;;;;;;5056732;28;20186;-79
2020/12/22 10:58:48;;;;;;;3.53;2.60;;;13.30;99.90;;;;;;5055079;28;20192;-80
2020/12/22 11:01:14;;;;;;;3.90;2.20;;;13.30;99.90;;;;;;5057840;28;20232;-80
2020/12/22 11:03:41;;;;;;;3.77;2.50;;;13.40;99.90;;;;;;5054466;28;20198;-79
2020/12/22 11:08:44;;;;;;;4.13;2.30;;;13.50;99.90;;;;;;5054155;28;20170;-79
2020/12/22 11:11:10;;;;;;;3.23;2.20;;;13.50;99.90;;;;;;5052799;28;20189;-78
2020/12/22 11:13:35;;;;;;;2.83;2.20;;;13.40;99.90;;;;;;5050374;28;20194;-76
2020/12/22 11:16:01;;;;;;;3.47;2.20;;;13.40;99.90;;;;;;5048346;28;20183;-80
2020/12/22 11:18:27;;;;;;;3.23;2.20;;;13.30;99.90;;;;;;5017199;28;20281;-78
2020/12/22 11:20:52;;;;;;;5.07;2.50;;;13.30;99.90;;;;;;5017156;28;20183;-79
2020/12/22 11:23:18;;;;;;;3.47;1.97;;;13.40;99.90;;;;;;5023604;28;20208;-79
2020/12/22 11:25:43;;;;;;;3.63;2.40;;;13.30;99.90;;;;;;5036404;28;20634;-79
2020/12/22 11:28:09;;;;;;;6.47;2.33;;;13.30;99.90;;;;;;5055948;28;20546;-80
2020/12/22 11:30:34;;;;;;;5.63;2.10;;;13.30;99.90;;;;;;5040348;28;20588;-79
2020/12/22 11:33:00;;;;;;;5.93;2.20;;;13.30;99.90;;;;;;5056535;28;20232;-79
2020/12/22 11:35:26;;;;;;;4.27;1.90;;;13.20;99.90;;;;;;5034473;28;20208;-79
2020/12/22 11:37:51;;;;;;;5.07;2.17;;;13.20;99.90;;;;;;5028790;28;20239;-79
2020/12/22 11:40:18;;;;;;;4.70;2.27;;;13.20;99.90;;;;;;5047892;28;20188;-80
2020/12/22 11:42:43;;;;;;;3.20;2.30;;;13.20;99.90;;;;;;5056866;28;20198;-79
2020/12/22 11:45:09;;;;;;;4.30;2.27;;;13.10;99.90;;;;;;5054970;28;20204;-79
2020/12/22 11:47:34;;;;;;;3.83;1.90;;;13.20;99.90;;;;;;5044911;28;20320;-80
2020/12/22 11:50:00;;;;;;;4.03;2.00;;;13.20;99.90;;;;;;5051642;28;20640;-80
2020/12/22 11:52:25;;;;;;;4.70;2.30;;;13.30;99.90;;;;;;5056722;28;20672;-80
2020/12/22 11:54:51;;;;;;;4.23;2.40;;;13.30;99.90;;;;;;5057122;28;20181;-80
2020/12/22 11:57:16;;;;;;;3.83;2.60;;;13.30;99.90;;;;;;5047679;28;20182;-79
2020/12/22 11:59:42;;;;;;;3.60;2.20;;;13.30;99.90;;;;;;5051569;28;20240;-79
2020/12/22 12:02:08;;;;;;;5.17;2.33;;;13.30;99.90;;;;;;5040351;28;20210;-79
2020/12/22 12:04:33;;;;;;;3.93;2.50;;;13.20;99.90;;;;;;5036678;28;20213;-78
2020/12/22 12:06:59;;;;;;;4.13;2.30;;;13.10;99.90;;;;;;5050440;28;20178;-79
2020/12/22 12:09:25;;;;;;;8.37;2.40;;;13.10;99.90;;;;;;5037594;28;20190;-78
2020/12/22 12:11:50;;;;;;;4.50;2.10;;;13.10;99.90;;;;;;5049440;28;20213;-79
2020/12/22 12:14:17;;;;;;;4.37;2.30;;;13.00;99.90;;;;;;5030953;28;21292;-79
2020/12/22 12:16:45;;;;;;;3.43;1.90;;;13.00;99.90;;;;;;5043867;28;20645;-78
2020/12/22 12:19:11;;;;;;;3.20;1.60;;;13.00;99.90;;;;;;5033561;28;20205;-79
2020/12/22 12:21:37;;;;;;;2.33;2.13;;;13.00;99.90;;;;;;5052742;28;20206;-78
2020/12/22 12:24:02;;;;;;;3.53;1.80;;;12.90;99.90;;;;;;5035838;28;20167;-78
2020/12/22 12:26:28;;;;;;;4.57;2.00;;;12.90;99.90;;;;;;5051218;28;20218;-79
2020/12/22 12:28:54;;;;;;;3.20;1.50;;;12.90;99.90;;;;;;5052457;28;20181;-79
2020/12/22 12:31:21;;;;;;;2.67;1.63;;;12.90;99.90;;;;;;5037718;28;20180;-79
2020/12/22 12:33:47;;;;;;;2.03;1.30;;;12.90;99.90;;;;;;5035326;28;20251;-79
2020/12/22 12:36:13;;;;;;;2.43;1.47;;;12.90;99.90;;;;;;5018084;28;20249;-79
2020/12/22 12:38:38;;;;;;;4.40;1.67;;;12.90;99.90;;;;;;5050302;28;20182;-80
2020/12/22 12:41:04;;;;;;;2.30;1.30;;;12.90;99.90;;;;;;5028793;28;20236;-79
2020/12/22 12:43:29;;;;;;;3.83;1.27;;;13.00;99.90;;;;;;5042439;28;20259;-79
2020/12/22 12:45:55;;;;;;;2.03;1.20;;;12.90;99.90;;;;;;5041716;28;20198;-79
2020/12/22 12:48:20;;;;;;;3.00;1.30;;;12.90;99.90;;;;;;5015336;28;20185;-79